createdAt,value
2022-10-22T00:59:25.092Z,1
2022-10-22T01:28:21.673Z,1
2022-10-22T01:57:13.381Z,3
2022-10-22T02:26:09.152Z,1
2022-10-22T02:54:56.797Z,1
2022-10-22T03:23:50.426Z,0
2022-10-22T03:52:39.807Z,0
2022-10-22T04:21:32.855Z,0
2022-10-22T04:50:16.613Z,1
2022-10-22T05:19:02.175Z,3
2022-10-22T05:47:45.726Z,3
2022-10-22T06:18:18.418Z,3
2022-10-22T07:44:21.203Z,10
2022-10-22T08:12:57.134Z,9
2022-10-22T08:41:20.183Z,3
2022-10-22T09:09:43.438Z,3
2022-10-22T09:38:13.734Z,3
2022-10-22T10:06:43.623Z,4
2022-10-22T10:34:59.563Z,4
2022-10-22T11:03:27.887Z,3
2022-10-22T11:31:59.193Z,3
2022-10-22T12:00:31.788Z,3
2022-10-22T12:29:06.242Z,5
2022-10-22T12:57:40.945Z,3
2022-10-22T13:26:11.793Z,3
2022-10-22T13:54:41.581Z,6
2022-10-22T14:23:22.654Z,7
2022-10-22T14:51:50.165Z,4
2022-10-22T15:20:27.114Z,4
2022-10-22T15:48:55.760Z,20
2022-10-22T16:17:30.560Z,7
2022-10-22T16:46:01.849Z,10
2022-10-22T17:14:42.046Z,13
2022-10-22T17:43:11.543Z,24
2022-10-22T18:11:48.237Z,22
2022-10-22T18:40:14.809Z,13
2022-10-22T19:08:28.303Z,5
2022-10-22T19:36:45.149Z,4
2022-10-22T20:05:20.862Z,4
2022-10-22T20:05:56.854Z,4
2022-10-22T20:34:11.370Z,7
2022-10-22T21:02:27.173Z,8
2022-10-22T21:31:03.795Z,9
2022-10-22T21:59:39.533Z,10
2022-10-22T22:28:23.325Z,10
2022-10-22T22:57:03.656Z,10
2022-10-22T23:25:37.328Z,7
2022-10-22T23:54:11.681Z,7
